createdAt,value
2023-01-28T00:00:54.059Z,7.40
2023-01-28T00:03:25.583Z,10.30
2023-01-28T00:06:02.662Z,10.50
2023-01-28T00:08:30.270Z,10.10
2023-01-28T00:11:02.349Z,8.70
2023-01-28T00:13:31.759Z,9.30
2023-01-28T00:16:02.776Z,9.00
2023-01-28T00:18:31.769Z,9.10
2023-01-28T00:21:18.111Z,9.10
2023-01-28T00:23:51.879Z,10.80
2023-01-28T00:26:20.373Z,9.30
2023-01-28T00:28:48.271Z,9.40
2023-01-28T00:31:18.898Z,7.50
2023-01-28T00:33:48.585Z,9.90
2023-01-28T00:36:17.938Z,8.20
2023-01-28T00:38:50.676Z,9.20
2023-01-28T00:41:20.060Z,8.10
2023-01-28T00:43:49.351Z,7.60
2023-01-28T00:46:17.405Z,9.30
2023-01-28T00:48:45.993Z,7.80
2023-01-28T00:51:16.118Z,7.80
2023-01-28T00:53:44.368Z,8.00
2023-01-28T00:56:17.803Z,9.10
2023-01-28T00:58:45.695Z,7.70
2023-01-28T01:01:19.421Z,7.90
2023-01-28T01:03:48.203Z,8.60
2023-01-28T01:06:16.510Z,8.30
2023-01-28T01:08:44.100Z,6.40
2023-01-28T01:11:11.859Z,7.90
2023-01-28T01:13:39.447Z,7.80
2023-01-28T01:16:10.857Z,8.30
2023-01-28T01:18:39.510Z,8.20
2023-01-28T01:21:12.469Z,9.60
2023-01-28T01:23:40.863Z,10.10
2023-01-28T01:26:08.509Z,8.60
2023-01-28T01:28:37.223Z,9.00
2023-01-28T01:31:08.662Z,8.20
2023-01-28T01:33:36.521Z,8.80
2023-01-28T01:36:04.258Z,7.00
2023-01-28T01:38:31.876Z,9.40
2023-01-28T01:41:00.460Z,11.30
2023-01-28T01:43:49.707Z,8.50
2023-01-28T01:46:25.665Z,8.20
2023-01-28T01:48:54.682Z,9.20
2023-01-28T01:51:27.850Z,8.80
2023-01-28T01:53:57.970Z,8.00
2023-01-28T01:56:29.868Z,9.40
2023-01-28T01:58:58.053Z,9.30
2023-01-28T02:01:28.997Z,10.30
2023-01-28T02:04:08.996Z,10.00
2023-01-28T02:06:37.776Z,9.10
2023-01-28T02:09:31.725Z,8.80
2023-01-28T02:12:03.892Z,8.60
2023-01-28T02:14:35.779Z,9.30
2023-01-28T02:17:04.299Z,8.50
2023-01-28T02:19:42.810Z,8.70
2023-01-28T02:22:19.406Z,10.00
2023-01-28T02:25:08.981Z,9.90
2023-01-28T02:27:55.054Z,9.60
2023-01-28T02:30:29.532Z,8.60
2023-01-28T02:33:07.920Z,9.10
2023-01-28T02:35:40.268Z,8.00
2023-01-28T02:38:10.958Z,8.60
2023-01-28T02:40:42.056Z,8.80
2023-01-28T02:43:09.903Z,7.40
2023-01-28T02:45:37.669Z,8.20
2023-01-28T02:48:05.447Z,8.50
2023-01-28T02:50:50.057Z,9.40
2023-01-28T02:53:32.155Z,9.40
2023-01-28T02:56:12.136Z,8.40
2023-01-28T02:58:52.531Z,9.20
2023-01-28T03:01:39.018Z,9.00
2023-01-28T03:04:12.698Z,8.90
2023-01-28T03:06:45.611Z,10.10
2023-01-28T03:09:15.395Z,9.30
2023-01-28T03:11:48.243Z,9.60
2023-01-28T03:14:19.250Z,10.50
2023-01-28T03:16:47.830Z,9.00
2023-01-28T03:19:17.554Z,9.70
2023-01-28T03:21:46.845Z,9.80
2023-01-28T03:24:21.540Z,9.30
2023-01-28T03:27:13.605Z,9.40
2023-01-28T03:29:43.911Z,8.90
2023-01-28T03:32:13.162Z,9.70
2023-01-28T03:34:41.101Z,8.90
2023-01-28T03:37:09.097Z,9.60
2023-01-28T03:39:37.971Z,9.60
2023-01-28T03:42:11.208Z,8.90
2023-01-28T03:44:38.955Z,8.90
2023-01-28T03:47:06.529Z,8.30
2023-01-28T03:49:34.250Z,8.90
2023-01-28T03:52:02.050Z,8.70
2023-01-28T03:54:29.644Z,9.00
2023-01-28T03:56:57.308Z,9.40
2023-01-28T03:59:24.845Z,9.60
2023-01-28T04:01:52.430Z,8.40
2023-01-28T04:04:20.056Z,9.00
2023-01-28T04:06:47.709Z,8.00
2023-01-28T04:09:15.378Z,8.70
2023-01-28T04:11:43.057Z,9.20
2023-01-28T04:14:10.632Z,8.00
2023-01-28T04:16:38.203Z,8.90
2023-01-28T04:19:06.317Z,8.50
2023-01-28T04:21:33.900Z,9.30
2023-01-28T04:24:01.639Z,9.00
2023-01-28T04:26:29.329Z,7.30
2023-01-28T04:28:56.984Z,8.60
2023-01-28T04:31:24.740Z,8.40
2023-01-28T04:33:52.460Z,9.40
2023-01-28T04:36:20.016Z,8.10
2023-01-28T04:38:47.691Z,9.10
2023-01-28T04:41:15.572Z,8.70
2023-01-28T04:43:44.319Z,8.30
2023-01-28T04:46:13.481Z,9.80
2023-01-28T04:48:41.185Z,8.20
2023-01-28T04:51:08.869Z,10.20
2023-01-28T04:53:36.455Z,9.60
2023-01-28T04:56:04.303Z,8.90
2023-01-28T04:58:32.005Z,9.30
2023-01-28T05:01:00.324Z,9.60
2023-01-28T05:03:27.929Z,10.30
2023-01-28T05:05:55.587Z,8.80
2023-01-28T05:08:23.326Z,9.10
2023-01-28T05:10:50.877Z,10.70
2023-01-28T05:13:18.428Z,9.80
2023-01-28T05:15:51.380Z,9.70
2023-01-28T05:18:19.002Z,8.70
2023-01-28T05:20:47.330Z,8.80
2023-01-28T05:23:14.998Z,9.20
2023-01-28T05:25:42.646Z,8.30
2023-01-28T05:28:10.288Z,9.60
2023-01-28T05:30:39.028Z,10.00
2023-01-28T05:33:06.830Z,10.00
2023-01-28T05:35:34.625Z,9.40
2023-01-28T05:38:02.535Z,8.00
2023-01-28T05:40:30.164Z,9.90
2023-01-28T05:42:57.759Z,9.00
2023-01-28T05:45:25.429Z,7.60
2023-01-28T05:47:53.126Z,10.00
2023-01-28T05:50:20.858Z,8.40
2023-01-28T05:52:48.554Z,8.40
2023-01-28T05:55:16.237Z,8.10
2023-01-28T05:57:43.777Z,8.40
2023-01-28T06:00:12.234Z,7.70
2023-01-28T06:02:39.812Z,9.90
2023-01-28T06:05:08.258Z,9.10
2023-01-28T06:07:36.133Z,9.80
2023-01-28T06:10:04.193Z,10.00
2023-01-28T06:12:31.728Z,9.10
2023-01-28T06:14:59.370Z,9.70
2023-01-28T06:17:26.994Z,9.00
2023-01-28T06:19:54.693Z,8.40
2023-01-28T06:22:22.593Z,8.50
2023-01-28T06:24:50.141Z,8.90
2023-01-28T06:27:17.854Z,10.00
2023-01-28T06:29:45.422Z,8.50
2023-01-28T06:32:13.150Z,9.80
2023-01-28T06:34:40.992Z,9.80
2023-01-28T06:37:08.560Z,8.10
2023-01-28T06:39:36.261Z,10.50
2023-01-28T06:42:03.865Z,9.20
2023-01-28T06:44:31.649Z,8.20
2023-01-28T06:46:59.380Z,9.40
2023-01-28T06:49:26.915Z,8.30
2023-01-28T06:51:54.556Z,7.50
2023-01-28T06:54:22.077Z,9.00
2023-01-28T06:56:49.830Z,8.70
2023-01-28T06:59:17.419Z,9.50
2023-01-28T07:01:45.044Z,9.20
2023-01-28T07:04:12.640Z,10.00
2023-01-28T07:06:40.350Z,9.30
2023-01-28T07:09:08.055Z,9.60
2023-01-28T07:11:35.894Z,10.00
2023-01-28T07:14:03.647Z,10.00
2023-01-28T07:16:31.281Z,11.30
2023-01-28T07:18:59.062Z,11.30
2023-01-28T07:21:26.633Z,11.20
2023-01-28T07:23:54.241Z,10.70
2023-01-28T07:26:24.654Z,8.60
2023-01-28T07:28:52.263Z,11.80
2023-01-28T07:31:19.948Z,10.80
2023-01-28T07:33:47.869Z,10.60
2023-01-28T07:36:15.553Z,10.80
2023-01-28T07:38:43.281Z,11.40
2023-01-28T07:41:10.869Z,12.10
2023-01-28T07:43:38.489Z,10.30
2023-01-28T07:46:06.241Z,11.50
2023-01-28T07:48:33.800Z,8.70
2023-01-28T07:51:01.490Z,8.50
2023-01-28T07:53:29.212Z,9.10
2023-01-28T07:56:02.973Z,7.70
2023-01-28T07:58:30.907Z,9.80
2023-01-28T08:00:59.314Z,9.30
2023-01-28T08:03:28.163Z,9.00
2023-01-28T08:05:56.800Z,8.40
2023-01-28T08:08:26.261Z,8.20
2023-01-28T08:10:54.099Z,7.00
2023-01-28T08:13:21.821Z,8.80
2023-01-28T08:15:49.474Z,8.20
2023-01-28T08:18:17.496Z,10.50
2023-01-28T08:20:45.219Z,7.80
2023-01-28T08:23:17.371Z,7.90
2023-01-28T08:25:46.292Z,6.70
2023-01-28T08:28:16.178Z,8.40
2023-01-28T08:30:44.483Z,6.20
2023-01-28T08:33:14.756Z,7.70
2023-01-28T08:38:12.636Z,7.30
2023-01-28T08:40:40.446Z,8.00
2023-01-28T08:43:08.060Z,8.20
2023-01-28T08:45:35.983Z,8.40
2023-01-28T08:48:06.180Z,7.20
2023-01-28T08:50:38.904Z,8.20
2023-01-28T08:53:10.968Z,7.70
2023-01-28T08:55:38.517Z,8.40
2023-01-28T08:58:08.307Z,7.80
2023-01-28T09:00:35.994Z,8.10
2023-01-28T09:03:06.120Z,6.80
2023-01-28T09:05:35.019Z,7.70
2023-01-28T09:08:08.897Z,6.60
2023-01-28T09:10:37.193Z,7.60
2023-01-28T09:13:06.997Z,6.70
2023-01-28T09:15:35.536Z,7.50
2023-01-28T09:18:03.894Z,7.20
2023-01-28T09:20:31.720Z,8.20
2023-01-28T09:23:00.871Z,8.00
2023-01-28T09:25:28.750Z,7.00
2023-01-28T09:27:57.537Z,8.00
2023-01-28T09:30:25.866Z,7.40
2023-01-28T09:32:55.160Z,6.60
2023-01-28T09:35:23.001Z,8.70
2023-01-28T09:37:51.144Z,6.40
2023-01-28T09:40:29.112Z,6.80
2023-01-28T09:43:02.298Z,7.90
2023-01-28T09:45:44.538Z,7.40
2023-01-28T09:48:16.457Z,6.40
2023-01-28T09:50:47.781Z,7.60
2023-01-28T09:53:23.275Z,7.00
2023-01-28T09:55:56.649Z,4.90
2023-01-28T09:58:24.360Z,6.40
2023-01-28T10:01:10.318Z,7.70
2023-01-28T10:03:51.615Z,8.00
2023-01-28T10:06:23.835Z,5.50
2023-01-28T10:09:15.274Z,6.70
2023-01-28T10:12:01.344Z,6.70
2023-01-28T10:14:55.238Z,6.50
2023-01-28T10:17:37.047Z,8.00
2023-01-28T10:20:19.699Z,7.10
2023-01-28T10:23:10.703Z,6.90
2023-01-28T10:25:41.835Z,7.70
2023-01-28T10:28:19.048Z,7.70
2023-01-28T10:30:47.760Z,6.20
2023-01-28T10:33:27.802Z,7.30
2023-01-28T10:35:56.614Z,7.70
2023-01-28T10:38:26.849Z,6.80
2023-01-28T10:41:00.296Z,7.60
2023-01-28T10:43:32.318Z,7.40
2023-01-28T10:46:32.315Z,8.10
2023-01-28T10:49:22.764Z,6.50
2023-01-28T10:51:50.453Z,7.50
2023-01-28T10:54:24.046Z,6.70
2023-01-28T10:57:03.524Z,7.80
2023-01-28T10:59:34.161Z,7.40
2023-01-28T11:02:05.215Z,7.20
2023-01-28T11:04:35.701Z,8.40
2023-01-28T11:07:17.917Z,7.40
2023-01-28T11:09:48.400Z,7.40
2023-01-28T11:12:24.777Z,7.70
2023-01-28T11:15:00.930Z,8.10
2023-01-28T11:17:32.225Z,7.80
2023-01-28T11:20:11.893Z,7.30
2023-01-28T11:22:42.998Z,9.20
2023-01-28T11:25:33.883Z,8.10
2023-01-28T11:28:05.305Z,7.50
2023-01-28T11:30:36.037Z,8.90
2023-01-28T11:33:12.410Z,7.70
2023-01-28T11:35:39.979Z,7.10
2023-01-28T11:38:19.906Z,7.70
2023-01-28T11:40:55.980Z,7.40
2023-01-28T11:43:26.303Z,7.20
2023-01-28T11:46:35.499Z,9.60
2023-01-28T11:49:14.848Z,7.30
2023-01-28T11:52:22.955Z,7.40
2023-01-28T11:55:08.777Z,8.60
2023-01-28T11:57:55.315Z,8.20
2023-01-28T12:00:49.937Z,7.70
2023-01-28T12:03:38.936Z,7.80
2023-01-28T12:06:21.748Z,8.00
2023-01-28T12:09:07.332Z,8.70
2023-01-28T12:11:48.243Z,7.70
2023-01-28T12:14:48.201Z,7.40
2023-01-28T12:17:40.402Z,8.70
2023-01-28T12:20:46.597Z,7.70
2023-01-28T12:23:21.129Z,8.30
2023-01-28T12:25:58.078Z,8.80
2023-01-28T12:28:52.462Z,7.30
2023-01-28T12:31:41.644Z,6.80
2023-01-28T12:34:31.898Z,8.30
2023-01-28T12:37:38.566Z,8.70
2023-01-28T12:40:33.780Z,8.70
2023-01-28T12:43:08.706Z,8.60
2023-01-28T12:45:43.594Z,7.90
2023-01-28T12:48:29.382Z,8.10
2023-01-28T12:51:22.117Z,6.70
2023-01-28T12:53:55.691Z,8.40
2023-01-28T12:56:32.043Z,8.30
2023-01-28T12:59:27.790Z,8.30
2023-01-28T13:02:13.704Z,8.40
2023-01-28T13:04:54.202Z,8.40
2023-01-28T13:07:30.787Z,8.80
2023-01-28T13:10:12.854Z,7.70
2023-01-28T13:12:41.789Z,9.10
2023-01-28T13:15:15.784Z,8.50
2023-01-28T13:18:01.487Z,9.10
2023-01-28T13:20:35.391Z,9.10
2023-01-28T13:23:05.986Z,8.30
2023-01-28T13:25:47.719Z,9.30
2023-01-28T13:28:28.125Z,10.00
2023-01-28T13:31:10.824Z,10.00
2023-01-28T13:33:41.744Z,10.10
2023-01-28T13:36:28.329Z,9.90
2023-01-28T13:39:06.758Z,9.90
2023-01-28T13:41:50.735Z,10.90
2023-01-28T13:44:19.609Z,11.30
2023-01-28T13:46:47.573Z,10.20
2023-01-28T13:49:21.227Z,12.60
2023-01-28T13:52:01.417Z,13.20
2023-01-28T13:54:30.907Z,11.40
2023-01-28T13:57:01.279Z,10.70
2023-01-28T14:02:03.871Z,11.10
2023-01-28T14:05:02.046Z,13.10
2023-01-28T14:07:40.809Z,11.90
2023-01-28T14:10:25.164Z,13.00
2023-01-28T14:13:23.895Z,12.30
2023-01-28T14:16:12.085Z,13.10
2023-01-28T14:18:43.824Z,13.70
2023-01-28T14:21:15.182Z,11.00
2023-01-28T14:23:54.956Z,14.30
2023-01-28T14:26:39.671Z,13.10
2023-01-28T14:29:15.276Z,13.00
2023-01-28T14:31:43.245Z,9.70
2023-01-28T14:34:22.372Z,11.20
2023-01-28T14:36:53.017Z,13.70
2023-01-28T14:39:26.391Z,12.90
2023-01-28T14:41:58.380Z,12.10
2023-01-28T14:44:34.567Z,13.50
2023-01-28T14:47:28.314Z,11.60
2023-01-28T14:50:34.927Z,12.70
2023-01-28T14:53:27.318Z,12.00
2023-01-28T14:56:13.540Z,11.10
2023-01-28T14:58:56.982Z,11.30
2023-01-28T15:01:30.410Z,12.40
2023-01-28T15:03:58.238Z,13.50
2023-01-28T15:06:34.675Z,12.00
2023-01-28T15:09:08.340Z,14.50
2023-01-28T15:11:39.364Z,12.80
2023-01-28T15:14:16.313Z,15.40
2023-01-28T15:16:48.706Z,14.00
2023-01-28T15:19:18.114Z,13.60
2023-01-28T15:21:46.290Z,13.10
2023-01-28T15:24:17.171Z,14.60
2023-01-28T15:26:47.479Z,13.70
2023-01-28T15:29:32.374Z,14.70
2023-01-28T15:32:00.659Z,13.90
2023-01-28T15:34:28.589Z,14.20
2023-01-28T15:36:57.816Z,12.50
2023-01-28T15:39:27.136Z,14.50
2023-01-28T15:41:54.657Z,14.20
2023-01-28T15:44:30.295Z,14.60
2023-01-28T15:47:03.885Z,13.70
2023-01-28T15:49:35.520Z,13.10
2023-01-28T15:52:03.936Z,14.50
2023-01-28T15:54:31.727Z,14.50
2023-01-28T15:57:28.876Z,15.90
2023-01-28T16:00:15.100Z,14.00
2023-01-28T16:02:44.988Z,14.20
2023-01-28T16:05:32.992Z,12.50
2023-01-28T16:08:07.475Z,13.40
2023-01-28T16:10:35.473Z,13.40
2023-01-28T16:13:16.526Z,14.70
2023-01-28T16:15:50.218Z,13.00
2023-01-28T16:18:37.687Z,14.20
2023-01-28T16:21:10.427Z,14.80
2023-01-28T16:23:39.750Z,14.70
2023-01-28T16:26:22.229Z,14.50
2023-01-28T16:28:50.013Z,14.70
2023-01-28T16:31:18.267Z,14.90
2023-01-28T16:33:46.190Z,13.80
2023-01-28T16:36:16.668Z,16.20
2023-01-28T16:38:44.218Z,16.10
2023-01-28T16:41:29.312Z,17.30
2023-01-28T16:43:57.021Z,15.20
2023-01-28T16:46:27.172Z,15.10
2023-01-28T16:48:54.846Z,15.00
2023-01-28T16:51:23.306Z,14.90
2023-01-28T16:53:51.206Z,15.70
2023-01-28T16:56:44.124Z,15.40
2023-01-28T16:59:11.383Z,16.30
2023-01-28T17:01:44.526Z,15.70
2023-01-28T17:04:13.156Z,14.30
2023-01-28T17:06:43.399Z,15.20
2023-01-28T17:09:12.656Z,18.60
2023-01-28T17:11:40.745Z,14.30
2023-01-28T17:14:10.174Z,16.60
2023-01-28T17:16:38.486Z,15.50
2023-01-28T17:19:06.612Z,16.30
2023-01-28T17:21:34.365Z,15.70
2023-01-28T17:24:02.111Z,16.70
2023-01-28T17:26:29.729Z,16.90
2023-01-28T17:28:57.458Z,17.20
2023-01-28T17:31:25.257Z,16.40
2023-01-28T17:33:54.928Z,15.90
2023-01-28T17:36:24.387Z,16.90
2023-01-28T17:38:52.450Z,17.60
2023-01-28T17:41:20.951Z,17.00
2023-01-28T17:43:52.870Z,19.00
2023-01-28T17:46:22.850Z,15.40
2023-01-28T17:48:50.535Z,14.50
2023-01-28T17:51:18.315Z,16.10
2023-01-28T17:53:51.066Z,15.90
2023-01-28T17:56:21.265Z,15.90
2023-01-28T17:58:50.662Z,14.00
2023-01-28T18:01:19.380Z,11.30
2023-01-28T18:03:47.051Z,12.90
2023-01-28T18:06:14.834Z,11.70
2023-01-28T18:08:42.872Z,13.90
2023-01-28T18:11:12.153Z,15.70
2023-01-28T18:13:40.942Z,10.80
2023-01-28T18:16:12.364Z,14.80
2023-01-28T18:18:41.300Z,14.00
2023-01-28T18:21:22.402Z,13.50
2023-01-28T18:23:51.605Z,13.30
2023-01-28T18:26:19.153Z,12.60
2023-01-28T18:28:46.748Z,13.60
2023-01-28T18:31:14.468Z,12.80
2023-01-28T18:33:42.922Z,12.10
2023-01-28T18:36:10.822Z,13.10
2023-01-28T18:38:38.705Z,10.90
2023-01-28T18:41:06.387Z,11.40
2023-01-28T18:43:34.652Z,10.90
2023-01-28T18:46:10.306Z,13.00
2023-01-28T18:48:38.075Z,13.20
2023-01-28T18:51:05.971Z,12.30
2023-01-28T18:53:34.625Z,12.70
2023-01-28T18:56:04.632Z,14.70
2023-01-28T18:58:33.169Z,11.80
2023-01-28T19:01:07.407Z,13.00
2023-01-28T19:03:35.794Z,13.00
2023-01-28T19:06:08.606Z,14.60
2023-01-28T19:08:36.762Z,16.90
2023-01-28T19:11:04.647Z,17.00
2023-01-28T19:13:32.396Z,13.60
2023-01-28T19:16:03.721Z,18.60
2023-01-28T19:18:31.820Z,18.00
2023-01-28T19:21:06.430Z,16.90
2023-01-28T19:23:48.883Z,17.80
2023-01-28T19:26:17.380Z,17.10
2023-01-28T19:28:45.129Z,17.80
2023-01-28T19:31:12.793Z,18.20
2023-01-28T19:33:40.527Z,17.70
2023-01-28T19:36:08.524Z,20.50
2023-01-28T19:38:36.269Z,19.70
2023-01-28T19:41:05.508Z,20.00
2023-01-28T19:43:34.062Z,18.60
2023-01-28T19:46:04.308Z,19.20
2023-01-28T19:48:32.830Z,20.00
2023-01-28T19:51:09.352Z,19.90
2023-01-28T19:53:39.525Z,20.30
2023-01-28T19:56:10.933Z,20.20
2023-01-28T19:58:41.421Z,19.10
2023-01-28T20:01:29.829Z,18.00
2023-01-28T20:03:59.784Z,17.20
2023-01-28T20:06:30.166Z,19.10
2023-01-28T20:09:03.779Z,19.20
2023-01-28T20:11:31.714Z,18.20
2023-01-28T20:13:59.433Z,15.90
2023-01-28T20:16:32.311Z,20.80
2023-01-28T20:19:02.705Z,20.40
2023-01-28T20:21:31.551Z,18.40
2023-01-28T20:24:01.714Z,16.60
2023-01-28T20:26:31.802Z,14.50
2023-01-28T20:29:21.520Z,20.40
2023-01-28T20:32:01.113Z,18.00
2023-01-28T20:34:37.013Z,17.90
2023-01-28T20:37:04.597Z,17.50
2023-01-28T20:39:32.226Z,16.90
2023-01-28T20:42:00.162Z,13.90
2023-01-28T20:44:28.583Z,15.70
2023-01-28T20:46:57.348Z,13.50
2023-01-28T20:49:28.057Z,12.00
2023-01-28T20:51:56.267Z,11.70
2023-01-28T20:54:24.558Z,14.60
2023-01-28T20:56:52.923Z,13.50
2023-01-28T20:59:20.693Z,11.20
2023-01-28T21:01:48.593Z,12.00
2023-01-28T21:04:16.486Z,9.70
2023-01-28T21:06:44.082Z,7.20
2023-01-28T21:09:11.709Z,10.00
2023-01-28T21:11:39.274Z,9.60
2023-01-28T21:14:07.022Z,9.90
2023-01-28T21:16:34.730Z,6.10
2023-01-28T21:19:02.432Z,7.30
2023-01-28T21:21:30.323Z,8.20
2023-01-28T21:24:01.353Z,9.40
2023-01-28T21:26:29.380Z,7.80
2023-01-28T21:28:57.315Z,9.70
2023-01-28T21:31:26.549Z,8.40
2023-01-28T21:34:00.360Z,8.30
2023-01-28T21:36:28.228Z,6.60
2023-01-28T21:38:58.685Z,8.40
2023-01-28T21:41:27.672Z,8.20
2023-01-28T21:43:56.429Z,9.20
2023-01-28T21:46:27.201Z,7.90
2023-01-28T21:49:03.304Z,9.50
2023-01-28T21:51:31.461Z,9.70
2023-01-28T21:53:59.274Z,7.40
2023-01-28T21:56:27.088Z,7.50
2023-01-28T21:58:54.707Z,8.20
2023-01-28T22:01:23.524Z,8.70
2023-01-28T22:03:51.181Z,9.80
2023-01-28T22:06:18.973Z,8.50
2023-01-28T22:08:46.583Z,9.80
2023-01-28T22:11:14.134Z,9.30
2023-01-28T22:13:41.678Z,8.20
2023-01-28T22:16:09.532Z,8.10
2023-01-28T22:18:37.358Z,7.80
2023-01-28T22:21:08.114Z,6.00
2023-01-28T22:23:35.666Z,8.00
2023-01-28T22:26:03.361Z,7.40
2023-01-28T22:28:31.058Z,5.90
2023-01-28T22:31:07.775Z,6.80
2023-01-28T22:36:14.895Z,7.90
2023-01-28T22:38:44.316Z,7.50
2023-01-28T22:41:14.882Z,6.40
2023-01-28T22:46:10.289Z,5.50
2023-01-28T22:48:39.102Z,7.00
2023-01-28T22:51:21.816Z,5.20
2023-01-28T22:53:51.601Z,6.10
2023-01-28T22:56:22.960Z,6.60
2023-01-28T22:59:01.772Z,5.90
2023-01-28T23:01:30.388Z,6.40
2023-01-28T23:03:58.389Z,6.20
2023-01-28T23:06:28.062Z,5.20
2023-01-28T23:08:56.698Z,4.60
2023-01-28T23:11:24.721Z,4.90
2023-01-28T23:13:54.516Z,6.30
2023-01-28T23:16:22.013Z,6.80
2023-01-28T23:18:50.233Z,6.20
2023-01-28T23:21:19.743Z,5.60
2023-01-28T23:23:47.379Z,6.40
2023-01-28T23:26:15.039Z,5.50
2023-01-28T23:28:42.831Z,6.10
2023-01-28T23:31:10.664Z,6.70
2023-01-28T23:33:38.359Z,7.00
2023-01-28T23:36:06.172Z,7.20
2023-01-28T23:38:33.982Z,5.40
2023-01-28T23:41:01.544Z,6.50
2023-01-28T23:43:29.162Z,8.30
2023-01-28T23:45:56.932Z,7.00
2023-01-28T23:48:24.783Z,7.10
2023-01-28T23:50:55.734Z,7.20
2023-01-28T23:53:23.602Z,8.10
2023-01-28T23:55:51.146Z,10.80
2023-01-28T23:58:33.526Z,7.40
